createdAt,value
2018-07-12T00:00:25.664Z,66.26
2018-07-12T00:02:58.430Z,65.96
2018-07-12T00:05:30.842Z,66.67
2018-07-12T00:10:44.440Z,66.95
2018-07-12T00:13:18.121Z,67.32
2018-07-12T00:15:51.945Z,67.30
2018-07-12T00:18:24.710Z,67.11
2018-07-12T00:21:01.674Z,66.16
2018-07-12T00:23:35.201Z,67.20
2018-07-12T00:26:09.930Z,66.02
2018-07-12T00:28:44.721Z,66.04
2018-07-12T00:39:38.048Z,64.63
2018-07-12T00:42:13.504Z,65.20
2018-07-12T00:44:52.691Z,65.77
2018-07-12T00:50:06.395Z,66.95
2018-07-12T00:52:41.694Z,67.66
2018-07-12T00:55:15.294Z,67.86
2018-07-12T00:57:48.243Z,66.89
2018-07-12T01:00:21.321Z,66.32
2018-07-12T01:02:55.715Z,66.10
2018-07-12T01:05:28.566Z,66.54
2018-07-12T01:07:59.748Z,66.49
2018-07-12T01:10:31.903Z,67.20
2018-07-12T01:13:07.036Z,66.39
2018-07-12T01:15:41.773Z,66.77
2018-07-12T01:18:14.889Z,67.00
2018-07-12T01:20:48.244Z,66.14
2018-07-12T01:23:19.741Z,65.92
2018-07-12T01:25:50.031Z,66.36
2018-07-12T01:28:24.863Z,66.42
2018-07-12T01:30:55.916Z,66.96
2018-07-12T01:33:26.941Z,66.70
2018-07-12T01:35:58.780Z,66.95
2018-07-12T01:38:29.397Z,66.05
2018-07-12T01:41:00.491Z,65.67
2018-07-12T01:43:33.893Z,66.58
2018-07-12T01:46:05.391Z,66.52
2018-07-12T01:48:40.566Z,67.08
2018-07-12T01:51:14.796Z,67.20
2018-07-12T01:53:49.221Z,67.31
2018-07-12T01:56:24.790Z,66.56
2018-07-12T01:58:56.963Z,67.29
2018-07-12T02:01:30.620Z,67.01
2018-07-12T02:04:02.995Z,67.94
2018-07-12T02:06:36.050Z,68.08
2018-07-12T02:09:08.053Z,67.28
2018-07-12T02:11:42.915Z,67.99
2018-07-12T02:14:19.564Z,68.06
2018-07-12T02:19:33.548Z,68.24
2018-07-12T02:22:06.427Z,67.71
2018-07-12T02:24:41.559Z,68.27
2018-07-12T02:27:16.453Z,68.42
2018-07-12T02:29:47.234Z,67.66
2018-07-12T02:32:19.120Z,67.66
2018-07-12T02:34:51.590Z,67.73
2018-07-12T02:37:22.979Z,68.37
2018-07-12T02:39:59.554Z,67.97
2018-07-12T02:42:37.386Z,68.25
2018-07-12T02:47:50.532Z,68.88
2018-07-12T02:50:22.930Z,68.59
2018-07-12T02:52:56.512Z,68.17
2018-07-12T02:55:30.547Z,68.44
2018-07-12T02:58:05.287Z,67.96
2018-07-12T03:00:42.081Z,68.05
2018-07-12T03:08:27.645Z,69.11
2018-07-12T03:11:03.383Z,68.50
2018-07-12T03:13:36.979Z,68.23
2018-07-12T03:16:09.592Z,67.83
2018-07-12T03:18:43.489Z,67.58
2018-07-12T03:21:11.793Z,67.75
2018-07-12T03:23:48.081Z,67.34
2018-07-12T03:26:20.533Z,68.19
2018-07-12T03:28:55.667Z,68.46
2018-07-12T03:31:32.227Z,68.83
2018-07-12T03:34:05.901Z,69.02
2018-07-12T03:39:17.347Z,67.76
2018-07-12T03:41:51.925Z,68.32
2018-07-12T03:44:24.216Z,68.16
2018-07-12T03:46:59.772Z,68.32
2018-07-12T03:49:34.488Z,68.34
2018-07-12T03:52:08.543Z,68.63
2018-07-12T03:54:42.313Z,68.74
2018-07-12T03:57:15.355Z,68.87
2018-07-12T03:59:51.505Z,68.77
2018-07-12T04:02:24.943Z,68.64
2018-07-12T04:05:05.200Z,68.63
2018-07-12T04:07:39.530Z,68.41
2018-07-12T04:12:50.404Z,68.11
2018-07-12T04:15:24.527Z,67.75
2018-07-12T04:17:57.423Z,68.05
2018-07-12T04:20:28.613Z,66.65
2018-07-12T04:23:05.908Z,66.41
2018-07-12T04:25:40.417Z,66.11
2018-07-12T04:28:18.033Z,65.98
2018-07-12T04:30:52.603Z,66.04
2018-07-12T04:33:30.899Z,65.99
2018-07-12T04:36:05.408Z,64.94
2018-07-12T04:38:41.039Z,64.87
2018-07-12T04:41:14.834Z,65.62
2018-07-12T04:43:47.489Z,65.79
2018-07-12T04:46:24.302Z,64.95
2018-07-12T04:49:00.451Z,63.86
2018-07-12T04:51:36.150Z,62.87
2018-07-12T04:54:17.309Z,63.28
2018-07-12T04:56:52.921Z,63.10
2018-07-12T04:59:27.036Z,63.46
2018-07-12T05:02:02.816Z,64.11
2018-07-12T05:04:37.424Z,63.96
2018-07-12T05:07:14.889Z,63.97
2018-07-12T05:09:49.598Z,63.77
2018-07-12T05:12:21.352Z,63.30
2018-07-12T05:14:58.277Z,63.49
2018-07-12T05:17:31.045Z,62.13
2018-07-12T05:20:06.858Z,61.90
2018-07-12T05:22:42.311Z,61.05
2018-07-12T05:25:19.280Z,61.76
2018-07-12T05:27:51.687Z,61.36
2018-07-12T05:30:26.095Z,60.59
2018-07-12T05:32:59.618Z,59.98
2018-07-12T05:35:42.610Z,60.20
2018-07-12T05:38:19.713Z,61.17
2018-07-12T05:41:01.347Z,60.67
2018-07-12T05:43:42.699Z,62.76
2018-07-12T05:46:20.371Z,62.65
2018-07-12T05:49:02.776Z,62.31
2018-07-12T05:51:42.347Z,60.83
2018-07-12T05:54:28.208Z,60.38
2018-07-12T05:57:16.332Z,60.26
2018-07-12T05:59:56.645Z,60.62
2018-07-12T06:02:36.049Z,60.45
2018-07-12T06:05:18.823Z,61.71
2018-07-12T06:07:56.104Z,59.18
2018-07-12T06:10:39.677Z,59.28
2018-07-12T06:13:19.168Z,60.18
2018-07-12T06:15:56.780Z,61.13
2018-07-12T06:18:40.346Z,61.23
2018-07-12T06:21:20.202Z,61.23
2018-07-12T06:23:57.625Z,61.44
2018-07-12T06:26:38.271Z,61.55
2018-07-12T06:29:18.427Z,60.18
2018-07-12T06:32:00.021Z,60.85
2018-07-12T06:34:46.416Z,61.50
2018-07-12T06:37:26.944Z,60.70
2018-07-12T06:40:13.220Z,60.80
2018-07-12T06:42:48.524Z,60.27
2018-07-12T06:45:33.803Z,60.08
2018-07-12T06:48:13.343Z,58.36
2018-07-12T06:50:49.444Z,59.32
2018-07-12T06:53:25.593Z,57.69
2018-07-12T06:58:50.103Z,57.27
2018-07-12T07:01:34.746Z,57.76
2018-07-12T07:04:16.948Z,57.74
2018-07-12T07:09:44.019Z,57.59
2018-07-12T07:12:22.430Z,57.31
2018-07-12T07:15:01.469Z,58.70
2018-07-12T07:20:30.330Z,58.28
2018-07-12T07:23:12.677Z,57.88
2018-07-12T07:25:53.956Z,57.39
2018-07-12T07:28:32.477Z,56.34
2018-07-12T07:31:16.893Z,57.40
2018-07-12T07:34:01.413Z,56.84
2018-07-12T07:36:41.947Z,56.07
2018-07-12T07:39:21.375Z,57.35
2018-07-12T07:44:51.027Z,55.17
2018-07-12T07:47:29.348Z,54.85
2018-07-12T07:50:30.576Z,54.56
2018-07-12T07:56:13.855Z,54.33
2018-07-12T07:59:03.446Z,55.93
2018-07-12T08:04:47.103Z,53.19
2018-07-12T08:07:38.245Z,53.92
2018-07-12T08:10:41.964Z,53.26
2018-07-12T08:13:35.148Z,53.07
2018-07-12T08:19:18.634Z,53.44
2018-07-12T08:22:17.880Z,52.87
2018-07-12T08:25:04.411Z,52.34
2018-07-12T08:28:00.875Z,51.94
2018-07-12T08:30:54.848Z,52.92
2018-07-12T08:33:47.488Z,51.51
2018-07-12T08:39:34.317Z,46.82
2018-07-12T08:48:25.818Z,45.24
2018-07-12T08:51:25.185Z,43.13
2018-07-12T08:54:15.729Z,44.89
2018-07-12T08:57:06.209Z,44.65
2018-07-12T08:59:50.002Z,43.61
2018-07-12T09:02:43.370Z,44.45
2018-07-12T09:05:33.619Z,46.83
2018-07-12T09:08:34.001Z,45.13
2018-07-12T09:11:24.621Z,44.00
2018-07-12T09:14:14.711Z,44.23
2018-07-12T09:28:48.552Z,45.01
2018-07-12T09:31:39.019Z,45.39
2018-07-12T09:40:20.331Z,44.98
2018-07-12T09:43:14.301Z,47.47
2018-07-12T09:46:08.544Z,41.26
2018-07-12T09:49:03.816Z,42.77
2018-07-12T09:51:52.826Z,44.70
2018-07-12T09:57:44.482Z,41.72
2018-07-12T10:03:46.437Z,44.87
2018-07-12T10:09:41.683Z,40.93
2018-07-12T10:12:32.220Z,42.36
2018-07-12T10:18:06.818Z,38.15
2018-07-12T10:20:50.832Z,40.87
2018-07-12T10:23:37.614Z,38.79
2018-07-12T10:26:20.809Z,39.01
2018-07-12T10:29:21.887Z,38.81
2018-07-12T10:32:14.007Z,39.08
2018-07-12T10:35:02.204Z,35.45
2018-07-12T10:40:49.376Z,38.63
2018-07-12T10:43:39.516Z,40.00
2018-07-12T10:46:31.388Z,41.66
2018-07-12T10:52:14.320Z,42.64
2018-07-12T10:55:04.799Z,41.81
2018-07-12T10:57:50.803Z,40.99
2018-07-12T11:00:40.656Z,42.24
2018-07-12T11:03:28.566Z,40.47
2018-07-12T11:06:19.775Z,41.53
2018-07-12T11:09:14.385Z,41.06
2018-07-12T11:12:06.222Z,41.35
2018-07-12T11:14:56.043Z,40.64
2018-07-12T11:17:46.416Z,41.87
2018-07-12T11:20:40.275Z,40.99
2018-07-12T11:35:29.875Z,36.86
2018-07-12T11:38:27.876Z,36.03
2018-07-12T11:41:29.283Z,37.75
2018-07-12T11:47:10.943Z,37.79
2018-07-12T11:53:04.128Z,40.27
2018-07-12T11:55:59.430Z,37.75
2018-07-12T12:01:55.469Z,36.72
2018-07-12T12:07:43.917Z,35.36
2018-07-12T12:10:37.776Z,35.19
2018-07-12T12:13:29.537Z,35.93
2018-07-12T12:16:16.287Z,35.79
2018-07-12T12:19:11.156Z,37.79
2018-07-12T12:22:07.244Z,36.24
2018-07-12T12:27:53.303Z,35.88
2018-07-12T12:30:54.195Z,36.78
2018-07-12T12:36:36.862Z,36.39
2018-07-12T12:45:31.264Z,35.47
2018-07-12T12:54:28.339Z,36.22
2018-07-12T13:06:14.199Z,38.65
2018-07-12T13:09:13.639Z,38.13
2018-07-12T13:17:57.820Z,37.25
2018-07-12T13:32:20.594Z,37.45
2018-07-12T13:35:17.024Z,35.63
2018-07-12T13:41:00.265Z,38.04
2018-07-12T13:43:48.789Z,38.34
2018-07-12T13:46:42.045Z,38.22
2018-07-12T13:49:42.152Z,36.21
2018-07-12T13:52:36.863Z,34.74
2018-07-12T13:55:32.644Z,33.96
2018-07-12T14:04:24.845Z,37.80
2018-07-12T14:10:05.669Z,36.03
2018-07-12T14:18:44.068Z,35.83
2018-07-12T14:21:29.593Z,35.20
2018-07-12T14:24:19.773Z,37.44
2018-07-12T14:30:19.087Z,37.45
2018-07-12T14:33:16.819Z,37.86
2018-07-12T14:36:04.208Z,35.86
2018-07-12T14:39:05.049Z,35.81
2018-07-12T14:41:55.796Z,34.41
2018-07-12T14:44:48.157Z,35.09
2018-07-12T14:50:36.267Z,35.39
2018-07-12T14:53:29.191Z,35.09
2018-07-12T15:08:14.426Z,34.89
2018-07-12T15:20:00.395Z,35.32
2018-07-12T15:22:55.062Z,36.00
2018-07-12T15:28:45.294Z,36.71
2018-07-12T15:31:47.667Z,33.46
2018-07-12T15:34:47.318Z,36.37
2018-07-12T15:40:27.688Z,34.74
2018-07-12T15:43:10.657Z,34.51
2018-07-12T15:46:02.490Z,35.14
2018-07-12T15:48:51.477Z,35.59
2018-07-12T15:51:37.911Z,34.37
2018-07-12T15:54:25.477Z,34.48
2018-07-12T15:57:17.509Z,34.73
2018-07-12T16:00:06.895Z,35.42
2018-07-12T16:03:03.350Z,34.35
2018-07-12T16:05:54.131Z,35.57
2018-07-12T16:08:46.583Z,36.10
2018-07-12T16:11:36.700Z,36.40
2018-07-12T16:14:27.216Z,36.76
2018-07-12T16:17:10.224Z,35.19
2018-07-12T16:20:01.058Z,35.18
2018-07-12T16:22:53.140Z,36.58
2018-07-12T16:25:40.151Z,35.45
2018-07-12T16:28:32.248Z,36.86
2018-07-12T16:31:14.486Z,36.74
2018-07-12T16:34:01.967Z,36.03
2018-07-12T16:36:48.671Z,34.89
2018-07-12T16:39:32.006Z,36.42
2018-07-12T16:42:25.289Z,37.26
2018-07-12T16:45:13.085Z,39.57
2018-07-12T16:48:06.498Z,39.25
2018-07-12T16:51:00.423Z,39.04
2018-07-12T16:53:49.517Z,38.59
2018-07-12T16:56:38.113Z,37.58
2018-07-12T17:02:25.539Z,36.89
2018-07-12T17:05:28.488Z,37.87
2018-07-12T17:08:16.546Z,37.88
2018-07-12T17:11:02.276Z,35.71
2018-07-12T17:13:54.675Z,35.65
2018-07-12T17:19:28.477Z,36.53
2018-07-12T17:22:19.145Z,36.33
2018-07-12T17:25:13.716Z,35.21
2018-07-12T17:28:08.127Z,34.41
2018-07-12T17:31:05.026Z,35.80
2018-07-12T17:34:03.705Z,38.34
2018-07-12T17:39:39.044Z,38.99
2018-07-12T17:42:33.301Z,38.73
2018-07-12T17:51:20.529Z,39.55
2018-07-12T17:57:12.729Z,41.83
2018-07-12T18:02:48.972Z,42.47
2018-07-12T18:05:37.308Z,41.78
2018-07-12T18:08:31.731Z,42.31
2018-07-12T18:11:17.460Z,43.21
2018-07-12T18:16:50.041Z,45.36
2018-07-12T18:22:36.506Z,46.79
2018-07-12T18:28:17.540Z,47.56
2018-07-12T18:34:10.794Z,47.89
2018-07-12T18:40:01.633Z,49.16
2018-07-12T18:42:56.361Z,49.34
2018-07-12T18:57:43.296Z,50.73
2018-07-12T19:00:38.912Z,50.55
2018-07-12T19:03:33.860Z,51.48
2018-07-12T19:06:29.475Z,51.43
2018-07-12T19:09:26.753Z,51.01
2018-07-12T19:15:12.317Z,51.79
2018-07-12T19:18:10.228Z,52.17
2018-07-12T19:24:09.374Z,52.62
2018-07-12T19:38:40.754Z,54.41
2018-07-12T19:44:27.665Z,53.85
2018-07-12T19:47:19.446Z,54.37
2018-07-12T19:53:07.595Z,54.92
2018-07-12T19:58:48.863Z,54.37
2018-07-12T20:10:28.539Z,55.91
2018-07-12T20:31:03.344Z,57.65
2018-07-12T20:34:01.860Z,57.25
2018-07-12T20:36:58.384Z,57.05
2018-07-12T20:42:43.114Z,58.07
2018-07-12T20:51:32.306Z,57.92
2018-07-12T20:54:33.414Z,57.98
2018-07-12T21:12:17.093Z,59.35
2018-07-12T21:21:15.209Z,59.88
2018-07-12T21:24:09.122Z,60.05
2018-07-12T21:26:58.328Z,60.08
2018-07-12T21:38:37.719Z,60.06
2018-07-12T21:47:18.788Z,61.89
2018-07-12T21:50:06.862Z,61.26
2018-07-12T22:07:53.525Z,61.46
2018-07-12T22:10:50.022Z,61.24
2018-07-12T22:16:31.834Z,62.59
2018-07-12T22:28:01.777Z,62.72
2018-07-12T22:30:59.152Z,61.63
2018-07-12T22:42:40.720Z,62.64
2018-07-12T22:45:45.394Z,63.28
2018-07-12T22:54:32.243Z,63.33
2018-07-12T22:57:32.431Z,62.95
2018-07-12T23:00:27.320Z,62.25
2018-07-12T23:12:08.726Z,62.58
2018-07-12T23:21:01.708Z,62.96
2018-07-12T23:26:55.521Z,63.03
2018-07-12T23:35:42.621Z,63.66
2018-07-12T23:38:38.837Z,64.84
2018-07-12T23:41:30.019Z,64.79
2018-07-12T23:44:30.516Z,64.12
2018-07-12T23:47:21.000Z,63.59
2018-07-12T23:53:07.928Z,63.96
2018-07-12T23:56:04.890Z,64.07
